Attawapiskat Airport
CYAT : now visible

Airfield :











YOU CAN JOIN US ON...

 
LOGIN :

Register | Disclaimer

   EN    FR    IT 

 









Legend :    VFR   Marginal VFR   IFR   Intensive IFR   Very Intensive IFR
Visi :
Ceiling :
>= 8 km
>= 3000ft
5 to 8 km
1000 to 3000 ft
1500m to 5 km
500 to 1000 ft
800 to 1500m
200 to 500 ft
< 800m
< 200 ft
Symbols :   Thunderstorms  Fog  Heavy snow  Heavy precipitations  Wind > 20 kt






- Airport Elevation : 31 ft
- IATA code : YAT


CYAT - Attawapiskat

CURRENT METAR :
  • 230100Z AUTO 24004KT 9SM FEW029 OVC044 M01/M01 A3027 RMK SLP251

EXPIRED METARs :
  • 230054Z AUTO 24004KT 9SM FEW031 SCT039 OVC046 M01/M01 A3027 RMK SLP252
  • 230040Z AUTO 27004KT 9SM -SN FEW031 OVC041 M01/M01 A3027 RMK SLP253
  • 230000Z AUTO 25003KT 9SM SCT025 BKN043 OVC080 M01/M01 A3028 RMK SLP254
  • 222300Z AUTO 26003KT 9SM FEW038 M00/M01 A3026 RMK SLP250

Expired Forecast.
CZWG FIR / North America



MET'MAP, your aeronautical weather chart ! - Copyright ORBIFLY December 2007 - Disclaimer

ORBIFLY MET'MAP TEAM :

Programming & Development : Alexandra Zaïnal
Concept & original design : Baudouin d'Aumeries
Assistance for programming : Marc-Olivier Méhu
Technical & hardware support : Manuel Goepfert

Contact : metmap@orbifly.com




SOURCES & CREDITS :

   NOAA       Earth
Advisory